LTN weather

London Luton Airport
London, England, United Kingdom

Public forecast

Using degrees Celsius for public forecast. Weather courtesy of forecast.io.

METAR (pilot weather report)

Retrieved 2019/02/16 21:20 UTC (30 minutes ago):

EGGW 162120Z AUTO 18007KT 140V210 6000 OVC017 10/09 Q1020

TAF (pilot weather forecast)

Retrieved 2019/02/16 18:00 UTC (4 hours ago):

TAF EGGW 161655Z 1618/1718 20009KT 9000 SCT020 BECMG 1618/1621 BKN003 PROB40 TEMPO 1620/1704 0300 FG BKN001 BECMG 1703/1706 9999 FEW002 TEMPO 1715/1718 8000 -RADZ BKN006